createdAt,value
2022-09-24T00:01:35.951Z,13.00
2022-09-24T00:08:19.987Z,12.90
2022-09-24T00:15:03.413Z,12.90
2022-09-24T00:21:45.726Z,12.90
2022-09-24T00:28:28.445Z,13.20
2022-09-24T00:35:11.108Z,13.00
2022-09-24T00:41:53.468Z,13.20
2022-09-24T00:48:37.449Z,13.20
2022-09-24T00:55:22.282Z,13.30
2022-09-24T01:02:04.703Z,13.20
2022-09-24T01:08:47.487Z,13.10
2022-09-24T01:15:42.980Z,12.90
2022-09-24T01:22:57.722Z,12.60
2022-09-24T01:29:53.306Z,12.80
2022-09-24T01:36:36.936Z,12.90
2022-09-24T01:43:24.026Z,13.00
2022-09-24T01:50:09.002Z,13.10
2022-09-24T01:57:14.734Z,13.00
2022-09-24T02:04:00.321Z,12.80
2022-09-24T02:10:56.524Z,12.60
2022-09-24T02:17:43.035Z,12.50
2022-09-24T02:24:49.185Z,12.50
2022-09-24T02:31:37.517Z,12.40
2022-09-24T02:38:19.907Z,12.30
2022-09-24T02:45:04.387Z,12.40
2022-09-24T02:51:46.872Z,12.40
2022-09-24T02:58:30.356Z,12.40
2022-09-24T03:05:12.665Z,12.40
2022-09-24T03:11:55.998Z,12.60
2022-09-24T03:18:38.372Z,12.60
2022-09-24T03:25:21.362Z,12.40
2022-09-24T03:32:03.655Z,12.30
2022-09-24T03:38:48.349Z,12.40
2022-09-24T03:45:30.657Z,12.60
2022-09-24T03:52:13.004Z,12.60
2022-09-24T03:58:55.520Z,12.70
2022-09-24T04:05:38.030Z,12.80
2022-09-24T04:12:20.830Z,12.80
2022-09-24T04:19:03.143Z,12.80
2022-09-24T04:25:45.454Z,12.60
2022-09-24T04:32:27.781Z,12.40
2022-09-24T04:39:11.198Z,12.40
2022-09-24T04:45:58.786Z,12.50
2022-09-24T04:52:41.140Z,12.70
2022-09-24T04:59:23.863Z,12.70
2022-09-24T05:06:06.232Z,12.70
2022-09-24T05:12:48.502Z,12.60
2022-09-24T05:19:30.829Z,12.70
2022-09-24T05:26:45.790Z,12.80
2022-09-24T05:33:28.839Z,12.60
2022-09-24T05:40:30.213Z,12.90
2022-09-24T05:47:13.126Z,12.60
2022-09-24T05:53:55.444Z,12.60
2022-09-24T06:00:38.180Z,12.60
2022-09-24T06:07:21.421Z,12.90
2022-09-24T06:14:04.465Z,13.00
2022-09-24T06:20:46.936Z,13.10
2022-09-24T06:27:29.419Z,13.10
2022-09-24T06:34:11.762Z,13.40
2022-09-24T06:40:59.546Z,13.40
2022-09-24T06:47:41.912Z,13.80
2022-09-24T06:54:24.732Z,13.40
2022-09-24T07:01:07.854Z,13.40
2022-09-24T07:07:50.220Z,13.50
2022-09-24T07:14:32.536Z,13.50
2022-09-24T07:21:14.933Z,13.90
2022-09-24T07:28:02.124Z,14.20
2022-09-24T07:34:45.441Z,14.20
2022-09-24T07:41:27.866Z,14.10
2022-09-24T07:48:11.044Z,14.30
2022-09-24T07:54:54.171Z,14.90
2022-09-24T08:01:37.061Z,15.00
2022-09-24T08:08:20.664Z,14.90
2022-09-24T08:15:03.148Z,15.30
2022-09-24T08:21:48.547Z,15.80
2022-09-24T08:28:31.433Z,15.90
2022-09-24T08:35:15.709Z,16.40
2022-09-24T08:42:01.573Z,16.80
2022-09-24T08:48:49.082Z,17.60
2022-09-24T08:55:39.999Z,18.70
2022-09-24T09:02:43.624Z,19.80
2022-09-24T09:09:30.772Z,20.10
2022-09-24T09:16:22.430Z,21.10
2022-09-24T09:23:34.267Z,21.30
2022-09-24T09:30:19.887Z,21.30
2022-09-24T09:37:28.716Z,21.40
2022-09-24T09:44:19.222Z,21.60
2022-09-24T09:51:04.938Z,21.60
2022-09-24T09:57:48.176Z,20.90
2022-09-24T10:04:41.289Z,20.60
2022-09-24T10:11:23.576Z,20.00
2022-09-24T10:18:06.141Z,19.30
2022-09-24T10:24:50.207Z,19.10
2022-09-24T10:31:36.449Z,19.10
2022-09-24T10:38:22.069Z,18.70
2022-09-24T10:45:10.092Z,18.50
2022-09-24T10:52:02.537Z,18.60
2022-09-24T10:59:22.481Z,19.00
2022-09-24T11:06:44.055Z,19.30
2022-09-24T11:13:29.807Z,19.80
2022-09-24T11:20:35.245Z,19.60
2022-09-24T11:28:04.885Z,19.00
2022-09-24T11:35:17.971Z,19.80
2022-09-24T11:42:16.502Z,20.20
2022-09-24T11:49:01.802Z,20.30
2022-09-24T11:56:13.379Z,20.10
2022-09-24T12:03:07.785Z,19.30
2022-09-24T12:10:24.918Z,18.80
2022-09-24T12:17:14.929Z,18.40
2022-09-24T12:24:07.038Z,18.20
2022-09-24T12:31:16.372Z,18.40
2022-09-24T12:38:18.527Z,18.10
2022-09-24T12:45:03.999Z,18.20
2022-09-24T12:51:47.350Z,18.10
2022-09-24T12:58:37.766Z,18.20
2022-09-24T13:05:22.806Z,18.10
2022-09-24T13:12:20.582Z,18.10
2022-09-24T13:19:05.921Z,18.40
2022-09-24T13:26:20.326Z,19.10
2022-09-24T13:33:09.582Z,19.20
2022-09-24T13:39:58.131Z,19.20
2022-09-24T13:46:44.863Z,18.70
2022-09-24T13:53:34.795Z,18.70
2022-09-24T14:00:21.680Z,18.60
2022-09-24T14:07:04.022Z,18.70
2022-09-24T14:13:46.626Z,18.80
2022-09-24T14:20:35.371Z,19.20
2022-09-24T14:27:21.260Z,19.20
2022-09-24T14:34:04.900Z,19.40
2022-09-24T14:40:55.331Z,19.60
2022-09-24T14:47:38.022Z,19.10
2022-09-24T14:54:30.240Z,18.80
2022-09-24T15:01:18.222Z,18.60
2022-09-24T15:08:19.585Z,18.70
2022-09-24T15:15:05.276Z,18.80
2022-09-24T15:21:49.397Z,19.10
2022-09-24T15:28:31.838Z,19.10
2022-09-24T15:35:15.885Z,18.90
2022-09-24T15:41:58.426Z,18.70
2022-09-24T15:48:40.703Z,18.80
2022-09-24T15:55:24.022Z,18.60
2022-09-24T16:02:20.170Z,18.60
2022-09-24T16:09:03.946Z,18.50
2022-09-24T16:15:46.633Z,18.20
2022-09-24T16:22:29.231Z,17.90
2022-09-24T16:29:12.321Z,17.80
2022-09-24T16:35:54.677Z,17.50
2022-09-24T16:42:36.981Z,17.50
2022-09-24T16:49:19.581Z,17.20
2022-09-24T16:56:08.608Z,17.00
2022-09-24T17:02:50.967Z,17.00
2022-09-24T17:10:11.516Z,16.90
2022-09-24T17:16:53.831Z,16.70
2022-09-24T17:23:36.367Z,16.60
2022-09-24T17:30:18.913Z,16.40
2022-09-24T17:37:01.368Z,16.40
2022-09-24T17:43:44.265Z,16.50
2022-09-24T17:50:26.687Z,16.50
2022-09-24T17:57:09.030Z,16.40
2022-09-24T18:03:56.260Z,16.40
2022-09-24T18:10:38.554Z,16.40
2022-09-24T18:17:20.858Z,16.30
2022-09-24T18:24:03.340Z,16.10
2022-09-24T18:30:45.921Z,16.20
2022-09-24T18:37:28.560Z,16.30
2022-09-24T18:44:11.455Z,16.30
2022-09-24T18:50:53.742Z,16.10
2022-09-24T18:57:37.705Z,16.20
2022-09-24T19:04:19.995Z,16.20
2022-09-24T19:11:13.760Z,16.10
2022-09-24T19:17:56.087Z,16.40
2022-09-24T19:24:38.441Z,16.10
2022-09-24T19:31:24.655Z,15.90
2022-09-24T19:38:07.099Z,16.00
2022-09-24T19:44:51.639Z,16.00
2022-09-24T19:51:35.369Z,16.00
2022-09-24T19:58:17.701Z,15.90
2022-09-24T20:05:00.052Z,15.90
2022-09-24T20:11:42.544Z,15.90
2022-09-24T20:18:25.421Z,15.60
2022-09-24T20:25:08.010Z,15.70
2022-09-24T20:31:52.902Z,15.80
2022-09-24T20:38:35.231Z,15.80
2022-09-24T20:45:17.676Z,15.80
2022-09-24T20:52:05.226Z,15.60
2022-09-24T20:58:52.144Z,15.70
2022-09-24T21:05:34.435Z,15.50
2022-09-24T21:12:16.934Z,15.50
2022-09-24T21:19:00.421Z,15.20
2022-09-24T21:25:54.508Z,15.10
2022-09-24T21:32:38.652Z,15.10
2022-09-24T21:39:23.153Z,15.20
2022-09-24T21:46:06.579Z,15.30
2022-09-24T21:52:50.963Z,15.30
2022-09-24T21:59:51.690Z,15.40
2022-09-24T22:06:34.905Z,15.10
2022-09-24T22:13:17.808Z,15.10
2022-09-24T22:20:00.426Z,15.30
2022-09-24T22:26:42.996Z,15.50
2022-09-24T22:33:44.539Z,15.50
2022-09-24T22:40:26.988Z,15.60
2022-09-24T22:47:09.367Z,15.60
2022-09-24T22:53:53.076Z,15.40
2022-09-24T23:00:36.195Z,15.30
2022-09-24T23:07:18.524Z,15.40
2022-09-24T23:14:03.858Z,15.40
2022-09-24T23:20:46.320Z,15.40
2022-09-24T23:27:28.986Z,15.30
2022-09-24T23:34:13.218Z,15.20
2022-09-24T23:40:56.861Z,15.10
2022-09-24T23:47:39.223Z,15.40
2022-09-24T23:54:21.576Z,15.20
